TVS34M HEGN-LKMT
Flight info
| Callsign | TVS34M |
|---|---|
| Flight time | N/A |
| Altitude | 34000 |
| Route | HGD V608 NABED T55 KUNKI L321 REXUM M872 SOBAX DCT NOGLI L551 ANTAR/N0462F360 UN133 KOROS UG33 LUPIS UG18 GIKAS UN133 PEREN UL863 EVIVI L863 OKANA DCT PARAK DCT ABITU DCT MAVOR DCT UPLAV |
| Aircraft | B38M/M-SDE1FGHILORVWXY/HB1 |
Departure
| Time | N/A |
|---|---|
| Airport | Hurghada International Airport (HEGN) |
Arrival
| Time | 2026-04-28 19:26 |
|---|---|
| Airport | Leoš Janáček Airport Ostrava (LKMT) |
| Time | Latitude | Longitude | Altitude | Speed | Heading |
|---|---|---|---|---|---|
| 2026-04-28 19:11 | 48.84480 | 17.74175 | 14863 ft | 373 kts | 342° |
| 2026-04-28 19:11 | 48.86932 | 17.73091 | 14262 ft | 360 kts | 342° |
| 2026-04-28 19:12 | 48.89318 | 17.72035 | 13667 ft | 360 kts | 342° |
| 2026-04-28 19:12 | 48.91759 | 17.70954 | 13185 ft | 370 kts | 342° |
| 2026-04-28 19:12 | 48.94246 | 17.69850 | 13157 ft | 376 kts | 342° |
| 2026-04-28 19:12 | 48.96759 | 17.68735 | 13102 ft | 370 kts | 342° |
| 2026-04-28 19:13 | 48.99212 | 17.67645 | 12566 ft | 367 kts | 342° |
| 2026-04-28 19:13 | 49.01662 | 17.66556 | 12014 ft | 364 kts | 342° |
| 2026-04-28 19:13 | 49.04078 | 17.65481 | 11583 ft | 358 kts | 342° |
| 2026-04-28 19:13 | 49.06394 | 17.64448 | 11394 ft | 334 kts | 342° |
| 2026-04-28 19:14 | 49.08521 | 17.63499 | 11242 ft | 312 kts | 342° |
| 2026-04-28 19:14 | 49.10543 | 17.62596 | 11097 ft | 293 kts | 342° |
| 2026-04-28 19:14 | 49.12437 | 17.61750 | 10955 ft | 275 kts | 342° |
| 2026-04-28 19:14 | 49.14227 | 17.60950 | 10792 ft | 262 kts | 342° |
| 2026-04-28 19:15 | 49.15956 | 17.60176 | 10668 ft | 254 kts | 342° |
| 2026-04-28 19:15 | 49.17623 | 17.59429 | 10545 ft | 247 kts | 342° |
| 2026-04-28 19:15 | 49.19287 | 17.58683 | 10429 ft | 254 kts | 342° |
| 2026-04-28 19:15 | 49.20448 | 17.58163 | 10346 ft | 258 kts | 342° |
| 2026-04-28 19:16 | 49.22757 | 17.57127 | 10018 ft | 263 kts | 342° |
| 2026-04-28 19:16 | 49.24513 | 17.56338 | 9715 ft | 263 kts | 343° |
| 2026-04-28 19:16 | 49.26264 | 17.55550 | 9428 ft | 262 kts | 343° |
| 2026-04-28 19:16 | 49.28010 | 17.54766 | 9142 ft | 260 kts | 343° |
| 2026-04-28 19:17 | 49.29740 | 17.53987 | 8860 ft | 257 kts | 343° |
| 2026-04-28 19:17 | 49.31502 | 17.53652 | 8533 ft | 258 kts | 6° |
| 2026-04-28 19:17 | 49.33179 | 17.54597 | 8267 ft | 259 kts | 32° |
| 2026-04-28 19:17 | 49.34533 | 17.56445 | 8230 ft | 263 kts | 41° |
| 2026-04-28 19:18 | 49.35837 | 17.58381 | 8220 ft | 264 kts | 41° |
| 2026-04-28 19:18 | 49.37150 | 17.60355 | 8221 ft | 264 kts | 41° |
| 2026-04-28 19:18 | 49.38465 | 17.62352 | 8216 ft | 264 kts | 42° |
| 2026-04-28 19:18 | 49.39759 | 17.64329 | 8123 ft | 261 kts | 42° |
| 2026-04-28 19:19 | 49.41046 | 17.66304 | 7626 ft | 260 kts | 42° |
| 2026-04-28 19:19 | 49.42305 | 17.68241 | 7226 ft | 256 kts | 42° |
| 2026-04-28 19:19 | 49.43539 | 17.70142 | 7211 ft | 259 kts | 43° |
| 2026-04-28 19:19 | 49.44800 | 17.72087 | 7216 ft | 248 kts | 42° |
| 2026-04-28 19:20 | 49.45971 | 17.73894 | 7121 ft | 232 kts | 42° |
| 2026-04-28 19:20 | 49.47128 | 17.75683 | 6694 ft | 243 kts | 42° |
| 2026-04-28 19:20 | 49.48350 | 17.77573 | 6182 ft | 251 kts | 43° |
| 2026-04-28 19:20 | 49.49569 | 17.79461 | 5822 ft | 246 kts | 43° |
| 2026-04-28 19:21 | 49.50764 | 17.81310 | 5461 ft | 240 kts | 43° |
| 2026-04-28 19:21 | 49.51954 | 17.83062 | 5112 ft | 234 kts | 42° |
| 2026-04-28 19:21 | 49.53121 | 17.84767 | 4749 ft | 229 kts | 42° |
| 2026-04-28 19:21 | 49.54255 | 17.86434 | 4412 ft | 222 kts | 44° |
| 2026-04-28 19:22 | 49.55312 | 17.88113 | 4152 ft | 213 kts | 45° |
| 2026-04-28 19:22 | 49.55983 | 17.89184 | 4018 ft | 205 kts | 46° |
| 2026-04-28 19:22 | 49.57272 | 17.91240 | 3772 ft | 204 kts | 45° |
| 2026-04-28 19:22 | 49.58271 | 17.92836 | 3525 ft | 207 kts | 46° |
| 2026-04-28 19:23 | 49.59269 | 17.94426 | 3390 ft | 203 kts | 46° |
| 2026-04-28 19:23 | 49.60220 | 17.95950 | 3379 ft | 190 kts | 46° |
| 2026-04-28 19:23 | 49.61121 | 17.97418 | 3249 ft | 188 kts | 46° |
| 2026-04-28 19:23 | 49.62003 | 17.98850 | 3121 ft | 176 kts | 46° |
| 2026-04-28 19:24 | 49.62828 | 18.00164 | 2830 ft | 171 kts | 46° |
| 2026-04-28 19:24 | 49.63650 | 18.01476 | 2436 ft | 167 kts | 45° |
| 2026-04-28 19:24 | 49.64428 | 18.02720 | 2053 ft | 155 kts | 45° |
| 2026-04-28 19:24 | 49.65150 | 18.03878 | 1756 ft | 146 kts | 45° |
| 2026-04-28 19:25 | 49.65848 | 18.05001 | 1517 ft | 145 kts | 45° |
| 2026-04-28 19:25 | 49.66546 | 18.06124 | 1335 ft | 144 kts | 44° |
| 2026-04-28 19:25 | 49.67232 | 18.07230 | 1244 ft | 144 kts | 44° |
| 2026-04-28 19:25 | 49.67925 | 18.08348 | 1049 ft | 144 kts | 45° |
| 2026-04-28 19:26 | 49.68608 | 18.09450 | 848 ft | 137 kts | 45° |
| 2026-04-28 19:26 | 49.69193 | 18.10398 | 829 ft | 99 kts | 45° |
| 2026-04-28 19:26 | 49.69551 | 18.10976 | 831 ft | 56 kts | 46° |
| 2026-04-28 19:26 | 49.69794 | 18.11366 | 833 ft | 49 kts | 47° |
| 2026-04-28 19:27 | 49.70025 | 18.11739 | 828 ft | 45 kts | 46° |
| 2026-04-28 19:27 | 49.70193 | 18.12009 | 832 ft | 30 kts | 46° |
| 2026-04-28 19:27 | 49.70262 | 18.12159 | 828 ft | 13 kts | 102° |
| 2026-04-28 19:27 | 49.70195 | 18.12271 | 826 ft | 13 kts | 137° |
| 2026-04-28 19:28 | 49.70142 | 18.12347 | 824 ft | 9 kts | 136° |
| 2026-04-28 19:28 | 49.70087 | 18.12428 | 824 ft | 12 kts | 137° |
| 2026-04-28 19:28 | 49.70012 | 18.12420 | 821 ft | 13 kts | 227° |
| 2026-04-28 19:28 | 49.69944 | 18.12309 | 823 ft | 15 kts | 226° |
| 2026-04-28 19:29 | 49.69865 | 18.12181 | 823 ft | 17 kts | 226° |
| 2026-04-28 19:29 | 49.69807 | 18.12087 | 823 ft | 19 kts | 226° |
| 2026-04-28 19:29 | 49.69682 | 18.11884 | 823 ft | 13 kts | 226° |
| 2026-04-28 19:29 | 49.69631 | 18.11808 | 823 ft | 7 kts | 207° |
| 2026-04-28 19:30 | 49.69592 | 18.11843 | 823 ft | 8 kts | 113° |
| 2026-04-28 19:30 | 49.69582 | 18.11873 | 820 ft | 5 kts | 117° |
| 2026-04-28 19:30 | 49.69552 | 18.11922 | 823 ft | 4 kts | 166° |
| 2026-04-28 19:30 | 49.69536 | 18.11922 | 823 ft | 0 kts | 181° |
| 2026-04-28 19:31 | 49.69532 | 18.11922 | 823 ft | 1 kts | 181° |
| 2026-04-28 19:31 | 49.69531 | 18.11921 | 823 ft | 0 kts | 181° |